Time,TemperatureF,DewpointF,PressureIn,WindDirection,WindDirectionDegrees,WindSpeedMPH,WindSpeedGustMPH,Humidity,HourlyPrecipIn,Conditions,Clouds,dailyrainin,SolarRadiationWatts/m^2,SoftwareType,DateUTC
2013-06-26 00:22:00,72.0,35.0,-100.00,SSW,198,7.0,9.0,26,0.00,,,-99.99,0.000000,,2013-06-26 06:22:00,
2013-06-26 00:34:00,72.0,35.0,-100.00,SSW,198,7.0,9.0,26,0.00,,,-99.99,0.000000,,2013-06-26 06:34:00,
2013-06-26 00:43:00,72.0,35.0,-100.00,SSW,198,7.0,9.0,26,0.00,,,-99.99,0.000000,,2013-06-26 06:43:00,
2013-06-26 02:11:00,72.0,37.0,-100.00,SSW,194,11.0,14.0,28,0.00,,,-99.99,0.000000,,2013-06-26 08:11:00,
2013-06-26 02:42:00,70.0,37.0,-100.00,SSW,195,8.0,11.0,30,0.00,,,-99.99,0.000000,,2013-06-26 08:42:00,
2013-06-26 02:52:00,71.0,38.0,-100.00,SSW,192,10.0,14.0,30,0.00,,,-99.99,0.000000,,2013-06-26 08:52:00,
2013-06-26 03:11:00,71.0,38.0,-100.00,SSW,196,11.0,14.0,30,0.00,,,-99.99,0.000000,,2013-06-26 09:11:00,
2013-06-26 03:43:00,68.0,38.0,-100.00,SSW,196,9.0,13.0,34,0.00,,,-99.99,0.000000,,2013-06-26 09:43:00,
2013-06-26 04:12:00,70.0,38.0,-100.00,SSW,194,10.0,14.0,31,0.00,,,-99.99,0.000000,,2013-06-26 10:12:00,
2013-06-26 04:22:00,70.0,37.0,-100.00,South,190,10.0,13.0,30,0.00,,,-99.99,0.000000,,2013-06-26 10:22:00,
2013-06-26 04:34:00,70.0,37.0,-100.00,South,179,10.0,14.0,30,0.00,,,-99.99,0.000000,,2013-06-26 10:34:00,
2013-06-26 04:43:00,71.0,37.0,-100.00,South,190,11.0,15.0,29,0.00,,,-99.99,0.000000,,2013-06-26 10:43:00,
2013-06-26 04:50:00,69.0,37.0,-100.00,SSW,201,9.0,12.0,31,0.00,,,-99.99,0.000000,,2013-06-26 10:50:00,
2013-06-26 05:11:00,69.0,37.0,-100.00,SSW,201,9.0,12.0,31,0.00,,,-99.99,0.000000,,2013-06-26 11:11:00,
2013-06-26 05:22:00,69.0,37.0,-100.00,SSW,201,9.0,12.0,31,0.00,,,-99.99,0.000000,,2013-06-26 11:22:00,
2013-06-26 05:32:00,69.0,37.0,-100.00,SSW,201,9.0,12.0,31,0.00,,,-99.99,0.000000,,2013-06-26 11:32:00,
2013-06-26 05:43:00,69.0,37.0,-100.00,SSW,201,9.0,12.0,31,0.00,,,-99.99,0.000000,,2013-06-26 11:43:00,
2013-06-26 06:22:00,65.0,39.0,-100.00,SSW,199,6.0,8.0,38,0.00,,,-99.99,3.000000,,2013-06-26 12:22:00,
2013-06-26 06:43:00,66.0,38.0,-100.00,SSW,193,7.0,10.0,36,0.00,,,-99.99,9.000000,,2013-06-26 12:43:00,
2013-06-26 07:11:00,65.0,39.0,-100.00,SSW,194,6.0,9.0,38,0.00,,,-99.99,19.000000,,2013-06-26 13:11:00,
2013-06-26 07:22:00,65.0,40.0,-100.00,SSW,196,6.0,9.0,40,0.00,,,-99.99,25.000000,,2013-06-26 13:22:00,
2013-06-26 07:42:00,67.0,40.0,-100.00,SSW,203,6.0,9.0,37,0.00,,,-99.99,40.000000,,2013-06-26 13:42:00,
2013-06-26 08:11:00,68.0,40.0,-100.00,SSW,195,7.0,10.0,36,0.00,,,-99.99,228.000000,,2013-06-26 14:11:00,
2013-06-26 08:23:00,68.0,41.0,-100.00,SSW,193,7.0,10.0,38,0.00,,,-99.99,259.000000,,2013-06-26 14:23:00,
2013-06-26 08:42:00,69.0,42.0,-100.00,SSW,201,7.0,12.0,38,0.00,,,-99.99,355.000000,,2013-06-26 14:42:00,
2013-06-26 09:50:00,76.0,46.0,-100.00,SSW,212,7.0,10.0,34,0.00,,,-99.99,627.000000,,2013-06-26 15:50:00,
2013-06-26 10:11:00,76.0,46.0,-100.00,SSW,212,7.0,10.0,34,0.00,,,-99.99,627.000000,,2013-06-26 16:11:00,
2013-06-26 10:22:00,76.0,46.0,-100.00,SSW,212,7.0,10.0,34,0.00,,,-99.99,627.000000,,2013-06-26 16:22:00,
2013-06-26 10:34:00,76.0,46.0,-100.00,SSW,212,7.0,10.0,34,0.00,,,-99.99,627.000000,,2013-06-26 16:34:00,
2013-06-26 10:43:00,76.0,46.0,-100.00,SSW,212,7.0,10.0,34,0.00,,,-99.99,627.000000,,2013-06-26 16:43:00,
2013-06-26 11:43:00,81.0,45.0,-100.00,SSW,201,7.0,9.0,28,0.00,,,-99.99,851.000000,,2013-06-26 17:43:00,
2013-06-26 11:52:00,81.0,45.0,-100.00,SSW,201,7.0,9.0,28,0.00,,,-99.99,851.000000,,2013-06-26 17:52:00,
2013-06-26 12:11:00,81.0,47.0,-100.00,SW,214,7.0,12.0,30,0.00,,,-99.99,891.000000,,2013-06-26 18:11:00,
2013-06-26 12:22:00,82.0,47.0,-100.00,SSW,213,6.0,10.0,30,0.00,,,-99.99,907.000000,,2013-06-26 18:22:00,
2013-06-26 12:42:00,83.0,46.0,-100.00,South,191,7.0,11.0,28,0.00,,,-99.99,948.000000,,2013-06-26 18:42:00,
2013-06-26 12:52:00,83.0,49.0,-100.00,South,170,5.0,9.0,31,0.00,,,-99.99,955.000000,,2013-06-26 18:52:00,
2013-06-26 13:22:00,84.0,41.0,-100.00,South,175,7.0,13.0,22,0.00,,,-99.99,978.000000,,2013-06-26 19:22:00,
2013-06-26 14:01:00,84.0,45.0,-100.00,SSW,211,7.0,11.0,25,0.00,,,-99.99,995.000000,,2013-06-26 20:01:00,
2013-06-26 14:22:00,85.0,43.0,-100.00,South,180,8.0,13.0,23,0.00,,,-99.99,992.000000,,2013-06-26 20:22:00,
2013-06-26 14:33:00,86.0,49.0,-100.00,South,185,5.0,9.0,28,0.00,,,-99.99,984.000000,,2013-06-26 20:33:00,
2013-06-26 14:43:00,86.0,43.0,-100.00,South,178,5.0,13.0,23,0.00,,,-99.99,982.000000,,2013-06-26 20:43:00,
2013-06-26 14:50:00,86.0,50.0,-100.00,SSW,201,7.0,12.0,29,0.00,,,-99.99,946.000000,,2013-06-26 20:50:00,
2013-06-26 15:01:00,86.0,46.0,-100.00,South,184,6.0,11.0,25,0.00,,,-99.99,964.000000,,2013-06-26 21:01:00,
2013-06-26 15:11:00,86.0,50.0,-100.00,SSW,201,7.0,12.0,29,0.00,,,-99.99,946.000000,,2013-06-26 21:11:00,
2013-06-26 15:23:00,86.0,50.0,-100.00,SSW,201,7.0,12.0,29,0.00,,,-99.99,946.000000,,2013-06-26 21:23:00,
2013-06-26 15:33:00,86.0,50.0,-100.00,SSW,201,7.0,12.0,29,0.00,,,-99.99,946.000000,,2013-06-26 21:33:00,
2013-06-26 15:43:00,86.0,50.0,-100.00,SSW,201,7.0,12.0,29,0.00,,,-99.99,946.000000,,2013-06-26 21:43:00,
2013-06-26 16:43:00,89.0,39.0,-100.00,South,189,6.0,12.0,17,0.00,,,-99.99,789.000000,,2013-06-26 22:43:00,
2013-06-26 16:52:00,89.0,39.0,-100.00,South,189,6.0,12.0,17,0.00,,,-99.99,789.000000,,2013-06-26 22:52:00,
2013-06-26 17:01:00,90.0,39.0,-100.00,SW,235,6.0,10.0,17,0.00,,,-99.99,741.000000,,2013-06-26 23:01:00,
2013-06-26 17:11:00,90.0,36.0,-100.00,SSW,202,6.0,12.0,15,0.00,,,-99.99,717.000000,,2013-06-26 23:11:00,
2013-06-26 17:22:00,90.0,34.0,-100.00,SSW,213,6.0,9.0,14,0.00,,,-99.99,691.000000,,2013-06-26 23:22:00,
2013-06-26 17:43:00,88.0,46.0,-100.00,WSW,239,5.0,9.0,24,0.00,,,-99.99,628.000000,,2013-06-26 23:43:00,
2013-06-26 17:52:00,88.0,43.0,-100.00,SW,221,5.0,9.0,21,0.00,,,-99.99,600.000000,,2013-06-26 23:52:00,
2013-06-26 18:01:00,89.0,39.0,-100.00,SW,227,6.0,9.0,17,0.00,,,-99.99,569.000000,,2013-06-27 00:01:00,
2013-06-26 18:11:00,89.0,39.0,-100.00,SW,227,6.0,9.0,17,0.00,,,-99.99,569.000000,,2013-06-27 00:11:00,
2013-06-26 18:22:00,89.0,41.0,-100.00,WSW,244,7.0,12.0,19,0.00,,,-99.99,537.000000,,2013-06-27 00:22:00,
2013-06-26 19:11:00,88.0,42.0,-100.00,WSW,241,6.0,12.0,20,0.00,,,-99.99,53.000000,,2013-06-27 01:11:00,
2013-06-26 19:21:00,88.0,39.0,-100.00,WSW,254,5.0,9.0,18,0.00,,,-99.99,185.000000,,2013-06-27 01:21:00,
2013-06-26 19:42:00,87.0,37.0,-100.00,SW,233,5.0,10.0,17,0.00,,,-99.99,46.000000,,2013-06-27 01:42:00,
2013-06-26 19:50:00,84.0,43.0,-100.00,WSW,242,4.0,6.0,24,0.00,,,-99.99,27.000000,,2013-06-27 01:50:00,
2013-06-26 19:52:00,86.0,44.0,-100.00,WSW,252,4.0,8.0,23,0.00,,,-99.99,162.000000,,2013-06-27 01:52:00,
2013-06-26 20:11:00,84.0,43.0,-100.00,WSW,242,4.0,6.0,24,0.00,,,-99.99,27.000000,,2013-06-27 02:11:00,
2013-06-26 20:22:00,84.0,43.0,-100.00,WSW,242,4.0,6.0,24,0.00,,,-99.99,27.000000,,2013-06-27 02:22:00,
2013-06-26 20:32:00,84.0,43.0,-100.00,WSW,242,4.0,6.0,24,0.00,,,-99.99,27.000000,,2013-06-27 02:32:00,
2013-06-26 20:42:00,84.0,43.0,-100.00,WSW,242,4.0,6.0,24,0.00,,,-99.99,27.000000,,2013-06-27 02:42:00,
2013-06-26 21:22:00,80.0,47.0,-100.00,ENE,57,7.0,11.0,32,0.00,,,-99.99,3.000000,,2013-06-27 03:22:00,
2013-06-26 21:52:00,76.0,44.0,-100.00,East,98,4.0,7.0,32,0.00,,,-99.99,0.000000,,2013-06-27 03:52:00,
2013-06-26 22:42:00,76.0,39.0,-100.00,SE,127,7.0,10.0,26,0.00,,,-99.99,0.000000,,2013-06-27 04:42:00,
2013-06-26 23:11:00,77.0,39.0,-100.00,SSE,153,8.0,11.0,26,0.00,,,-99.99,0.000000,,2013-06-27 05:11:00,
2013-06-26 23:21:00,76.0,37.0,-100.00,East,91,6.0,10.0,25,0.00,,,-99.99,0.000000,,2013-06-27 05:21:00,
2013-06-26 23:42:00,75.0,40.0,-100.00,ESE,112,5.0,9.0,28,0.00,,,-99.99,0.000000,,2013-06-27 05:42:00,
2013-06-26 23:53:00,74.0,38.0,-100.00,ESE,116,5.0,8.0,27,0.00,,,-99.99,0.000000,,2013-06-27 05:53:00,